70MI weather

Charlevoix Area Hospital Heliport
Charlevoix, Michigan, United States

Public forecast

Using degrees Fahrenheit for public forecast. Weather courtesy of forecast.io.

METAR (pilot weather report)

Closest report is Charlevoix Municipal Airport, 0.6 nm (1.0 km) S. Retrieved 2019/06/15 22:36 UTC (0 seconds ago):

KCVX 152236Z AUTO 32004KT 10SM CLR 15/08 A2990 RMK AO2 T01480077

TAF (pilot weather forecast)

Closest forecast is Pellston Regional Airport of Emmet County Airport, 25.4 nm (47.0 km) NE. Retrieved 2019/06/15 18:22 UTC (4 hours ago):

TAF KPLN 151720Z 1518/1618 32005KT P6SM SCT200 FM152300 35006KT P6SM FEW250 FM160300 00000KT P6SM FEW250 FM161300 06005KT P6SM SCT120 FM161500 08007KT P6SM SCT120